sensor_id;sensor_type;location;lat;lon;timestamp;P1;durP1;ratioP1;P2;durP2;ratioP2
38972;SDS011;25333;50.762;4.470;2022-10-16T00:01:33;1.60;;;0.20;;
38972;SDS011;25333;50.762;4.470;2022-10-16T00:04:00;0.95;;;0.20;;
38972;SDS011;25333;50.762;4.470;2022-10-16T00:06:27;1.90;;;0.38;;
38972;SDS011;25333;50.762;4.470;2022-10-16T00:08:53;0.47;;;0.13;;
38972;SDS011;25333;50.762;4.470;2022-10-16T00:11:21;1.20;;;0.10;;
38972;SDS011;25333;50.762;4.470;2022-10-16T00:13:51;1.00;;;0.50;;
38972;SDS011;25333;50.762;4.470;2022-10-16T00:16:21;0.80;;;0.20;;
38972;SDS011;25333;50.762;4.470;2022-10-16T00:18:47;0.75;;;0.28;;
38972;SDS011;25333;50.762;4.470;2022-10-16T00:21:14;1.33;;;0.23;;
38972;SDS011;25333;50.762;4.470;2022-10-16T00:23:42;0.52;;;0.20;;
38972;SDS011;25333;50.762;4.470;2022-10-16T00:26:09;1.00;;;0.20;;
38972;SDS011;25333;50.762;4.470;2022-10-16T00:28:39;1.92;;;0.45;;
38972;SDS011;25333;50.762;4.470;2022-10-16T00:31:06;0.75;;;0.30;;
38972;SDS011;25333;50.762;4.470;2022-10-16T00:33:34;1.48;;;0.35;;
38972;SDS011;25333;50.762;4.470;2022-10-16T00:36:01;0.50;;;0.20;;
38972;SDS011;25333;50.762;4.470;2022-10-16T00:38:28;1.45;;;0.30;;
38972;SDS011;25333;50.762;4.470;2022-10-16T00:40:53;1.35;;;0.22;;
38972;SDS011;25333;50.762;4.470;2022-10-16T00:49:15;0.55;;;0.20;;
38972;SDS011;25333;50.762;4.470;2022-10-16T00:51:45;4.93;;;0.38;;
38972;SDS011;25333;50.762;4.470;2022-10-16T00:54:14;1.88;;;0.30;;
38972;SDS011;25333;50.762;4.470;2022-10-16T00:56:44;1.40;;;0.28;;
38972;SDS011;25333;50.762;4.470;2022-10-16T00:59:14;0.63;;;0.22;;
38972;SDS011;25333;50.762;4.470;2022-10-16T01:01:45;2.50;;;0.30;;
38972;SDS011;25333;50.762;4.470;2022-10-16T01:04:10;2.10;;;0.47;;
38972;SDS011;25333;50.762;4.470;2022-10-16T01:06:42;1.35;;;0.50;;
38972;SDS011;25333;50.762;4.470;2022-10-16T01:09:17;1.10;;;0.30;;
38972;SDS011;25333;50.762;4.470;2022-10-16T01:12:01;0.83;;;0.20;;
38972;SDS011;25333;50.762;4.470;2022-10-16T01:17:15;2.05;;;0.45;;
38972;SDS011;25333;50.762;4.470;2022-10-16T01:20:00;1.02;;;0.40;;
38972;SDS011;25333;50.762;4.470;2022-10-16T01:28:39;1.08;;;0.52;;
38972;SDS011;25333;50.762;4.470;2022-10-16T01:31:18;1.40;;;0.35;;
38972;SDS011;25333;50.762;4.470;2022-10-16T01:33:48;1.33;;;0.20;;
38972;SDS011;25333;50.762;4.470;2022-10-16T01:36:23;0.88;;;0.52;;
38972;SDS011;25333;50.762;4.470;2022-10-16T01:38:54;0.73;;;0.30;;
38972;SDS011;25333;50.762;4.470;2022-10-16T01:41:42;2.15;;;0.47;;
38972;SDS011;25333;50.762;4.470;2022-10-16T01:44:16;1.17;;;0.52;;
38972;SDS011;25333;50.762;4.470;2022-10-16T01:46:46;1.23;;;0.50;;
38972;SDS011;25333;50.762;4.470;2022-10-16T01:49:13;1.38;;;0.52;;
38972;SDS011;25333;50.762;4.470;2022-10-16T01:51:40;0.85;;;0.40;;
38972;SDS011;25333;50.762;4.470;2022-10-16T01:54:08;1.25;;;0.43;;
38972;SDS011;25333;50.762;4.470;2022-10-16T01:56:36;1.33;;;0.30;;
38972;SDS011;25333;50.762;4.470;2022-10-16T01:59:05;1.38;;;0.30;;
38972;SDS011;25333;50.762;4.470;2022-10-16T02:01:36;1.58;;;0.30;;
38972;SDS011;25333;50.762;4.470;2022-10-16T02:04:09;1.67;;;0.40;;
38972;SDS011;25333;50.762;4.470;2022-10-16T02:06:41;1.87;;;0.40;;
38972;SDS011;25333;50.762;4.470;2022-10-16T02:09:07;1.05;;;0.40;;
38972;SDS011;25333;50.762;4.470;2022-10-16T02:11:33;2.42;;;0.40;;
38972;SDS011;25333;50.762;4.470;2022-10-16T02:14:00;1.30;;;0.53;;
38972;SDS011;25333;50.762;4.470;2022-10-16T02:16:33;1.58;;;0.40;;
38972;SDS011;25333;50.762;4.470;2022-10-16T02:19:06;1.77;;;0.47;;
38972;SDS011;25333;50.762;4.470;2022-10-16T02:26:35;2.80;;;0.73;;
38972;SDS011;25333;50.762;4.470;2022-10-16T02:29:12;1.70;;;0.43;;
38972;SDS011;25333;50.762;4.470;2022-10-16T02:31:42;2.28;;;0.73;;
38972;SDS011;25333;50.762;4.470;2022-10-16T02:34:12;2.67;;;0.50;;
38972;SDS011;25333;50.762;4.470;2022-10-16T02:36:39;2.22;;;0.60;;
38972;SDS011;25333;50.762;4.470;2022-10-16T02:39:06;1.20;;;0.40;;
38972;SDS011;25333;50.762;4.470;2022-10-16T02:41:33;3.20;;;0.60;;
38972;SDS011;25333;50.762;4.470;2022-10-16T02:43:58;1.33;;;0.43;;
38972;SDS011;25333;50.762;4.470;2022-10-16T02:46:24;2.37;;;0.50;;
38972;SDS011;25333;50.762;4.470;2022-10-16T02:48:50;3.13;;;0.70;;
38972;SDS011;25333;50.762;4.470;2022-10-16T02:51:15;0.97;;;0.40;;
38972;SDS011;25333;50.762;4.470;2022-10-16T02:53:41;1.97;;;0.63;;
38972;SDS011;25333;50.762;4.470;2022-10-16T02:56:06;1.07;;;0.50;;
38972;SDS011;25333;50.762;4.470;2022-10-16T02:58:32;1.92;;;0.45;;
38972;SDS011;25333;50.762;4.470;2022-10-16T03:00:58;1.93;;;0.77;;
38972;SDS011;25333;50.762;4.470;2022-10-16T03:03:23;2.03;;;0.57;;
38972;SDS011;25333;50.762;4.470;2022-10-16T03:05:49;2.22;;;0.40;;
38972;SDS011;25333;50.762;4.470;2022-10-16T03:08:14;1.50;;;0.55;;
38972;SDS011;25333;50.762;4.470;2022-10-16T03:10:40;1.23;;;0.60;;
38972;SDS011;25333;50.762;4.470;2022-10-16T03:13:06;2.60;;;0.80;;
38972;SDS011;25333;50.762;4.470;2022-10-16T03:15:31;5.07;;;0.70;;
38972;SDS011;25333;50.762;4.470;2022-10-16T03:17:57;1.00;;;0.57;;
38972;SDS011;25333;50.762;4.470;2022-10-16T03:20:23;2.15;;;0.60;;
38972;SDS011;25333;50.762;4.470;2022-10-16T03:22:49;1.42;;;0.43;;
38972;SDS011;25333;50.762;4.470;2022-10-16T03:25:15;1.55;;;0.40;;
38972;SDS011;25333;50.762;4.470;2022-10-16T03:27:40;1.90;;;0.40;;
38972;SDS011;25333;50.762;4.470;2022-10-16T03:30:06;2.22;;;0.60;;
38972;SDS011;25333;50.762;4.470;2022-10-16T03:32:32;2.65;;;0.40;;
38972;SDS011;25333;50.762;4.470;2022-10-16T03:34:58;1.85;;;0.70;;
38972;SDS011;25333;50.762;4.470;2022-10-16T03:37:23;2.03;;;0.70;;
38972;SDS011;25333;50.762;4.470;2022-10-16T03:39:49;1.30;;;0.43;;
38972;SDS011;25333;50.762;4.470;2022-10-16T03:42:15;1.48;;;0.57;;
38972;SDS011;25333;50.762;4.470;2022-10-16T03:44:40;2.72;;;0.77;;
38972;SDS011;25333;50.762;4.470;2022-10-16T03:47:06;2.23;;;0.70;;
38972;SDS011;25333;50.762;4.470;2022-10-16T03:49:31;2.33;;;1.07;;
38972;SDS011;25333;50.762;4.470;2022-10-16T03:51:57;3.33;;;0.97;;
38972;SDS011;25333;50.762;4.470;2022-10-16T03:54:22;1.70;;;0.70;;
38972;SDS011;25333;50.762;4.470;2022-10-16T03:56:48;2.20;;;0.80;;
38972;SDS011;25333;50.762;4.470;2022-10-16T03:59:14;1.20;;;0.50;;
38972;SDS011;25333;50.762;4.470;2022-10-16T04:01:39;1.52;;;0.47;;
38972;SDS011;25333;50.762;4.470;2022-10-16T04:04:05;1.27;;;0.50;;
38972;SDS011;25333;50.762;4.470;2022-10-16T04:06:31;2.73;;;0.80;;
38972;SDS011;25333;50.762;4.470;2022-10-16T04:08:56;1.45;;;0.70;;
38972;SDS011;25333;50.762;4.470;2022-10-16T04:11:22;1.50;;;0.80;;
38972;SDS011;25333;50.762;4.470;2022-10-16T04:13:48;2.10;;;0.77;;
38972;SDS011;25333;50.762;4.470;2022-10-16T04:16:13;1.30;;;0.60;;
38972;SDS011;25333;50.762;4.470;2022-10-16T04:18:39;3.07;;;0.80;;
38972;SDS011;25333;50.762;4.470;2022-10-16T04:21:05;2.43;;;0.70;;
38972;SDS011;25333;50.762;4.470;2022-10-16T04:23:31;1.58;;;0.70;;
38972;SDS011;25333;50.762;4.470;2022-10-16T04:25:58;3.03;;;0.73;;
38972;SDS011;25333;50.762;4.470;2022-10-16T04:28:23;1.50;;;0.70;;
38972;SDS011;25333;50.762;4.470;2022-10-16T04:30:49;4.05;;;1.10;;
38972;SDS011;25333;50.762;4.470;2022-10-16T04:33:15;2.60;;;0.60;;
38972;SDS011;25333;50.762;4.470;2022-10-16T04:35:40;2.53;;;0.70;;
38972;SDS011;25333;50.762;4.470;2022-10-16T04:38:06;0.73;;;0.50;;
38972;SDS011;25333;50.762;4.470;2022-10-16T04:40:31;1.25;;;0.68;;
38972;SDS011;25333;50.762;4.470;2022-10-16T04:43:03;3.20;;;0.93;;
38972;SDS011;25333;50.762;4.470;2022-10-16T04:45:29;4.70;;;0.77;;
38972;SDS011;25333;50.762;4.470;2022-10-16T04:47:58;1.37;;;0.50;;
38972;SDS011;25333;50.762;4.470;2022-10-16T04:50:24;2.42;;;0.70;;
38972;SDS011;25333;50.762;4.470;2022-10-16T04:52:50;1.88;;;0.77;;
38972;SDS011;25333;50.762;4.470;2022-10-16T04:55:16;1.83;;;0.70;;
38972;SDS011;25333;50.762;4.470;2022-10-16T04:57:42;1.30;;;0.53;;
38972;SDS011;25333;50.762;4.470;2022-10-16T05:00:07;4.03;;;1.03;;
38972;SDS011;25333;50.762;4.470;2022-10-16T05:02:34;3.42;;;0.70;;
38972;SDS011;25333;50.762;4.470;2022-10-16T05:05:00;2.33;;;0.75;;
38972;SDS011;25333;50.762;4.470;2022-10-16T05:07:25;3.80;;;0.77;;
38972;SDS011;25333;50.762;4.470;2022-10-16T05:09:51;2.70;;;0.52;;
38972;SDS011;25333;50.762;4.470;2022-10-16T05:12:16;5.00;;;0.95;;
38972;SDS011;25333;50.762;4.470;2022-10-16T05:14:42;2.77;;;0.50;;
38972;SDS011;25333;50.762;4.470;2022-10-16T05:17:07;2.20;;;0.70;;
38972;SDS011;25333;50.762;4.470;2022-10-16T05:19:33;3.45;;;1.05;;
38972;SDS011;25333;50.762;4.470;2022-10-16T05:21:59;2.10;;;0.50;;
38972;SDS011;25333;50.762;4.470;2022-10-16T05:24:24;3.07;;;0.97;;
38972;SDS011;25333;50.762;4.470;2022-10-16T05:26:50;7.35;;;0.95;;
38972;SDS011;25333;50.762;4.470;2022-10-16T05:29:16;2.63;;;0.70;;
38972;SDS011;25333;50.762;4.470;2022-10-16T05:31:42;2.22;;;0.90;;
38972;SDS011;25333;50.762;4.470;2022-10-16T05:34:07;5.30;;;0.77;;
38972;SDS011;25333;50.762;4.470;2022-10-16T05:36:33;5.27;;;1.60;;
38972;SDS011;25333;50.762;4.470;2022-10-16T05:38:59;3.20;;;0.60;;
38972;SDS011;25333;50.762;4.470;2022-10-16T05:41:24;1.93;;;0.70;;
38972;SDS011;25333;50.762;4.470;2022-10-16T05:43:51;2.50;;;0.80;;
38972;SDS011;25333;50.762;4.470;2022-10-16T05:46:18;2.58;;;0.77;;
38972;SDS011;25333;50.762;4.470;2022-10-16T05:48:43;3.60;;;1.00;;
38972;SDS011;25333;50.762;4.470;2022-10-16T05:51:10;3.92;;;0.80;;
38972;SDS011;25333;50.762;4.470;2022-10-16T05:53:37;2.13;;;0.82;;
38972;SDS011;25333;50.762;4.470;2022-10-16T05:56:05;2.00;;;0.80;;
38972;SDS011;25333;50.762;4.470;2022-10-16T05:58:36;2.10;;;0.75;;
38972;SDS011;25333;50.762;4.470;2022-10-16T06:01:04;1.50;;;0.73;;
38972;SDS011;25333;50.762;4.470;2022-10-16T06:03:31;2.50;;;1.00;;
38972;SDS011;25333;50.762;4.470;2022-10-16T06:05:57;2.67;;;0.80;;
38972;SDS011;25333;50.762;4.470;2022-10-16T06:08:23;2.35;;;0.65;;
38972;SDS011;25333;50.762;4.470;2022-10-16T06:10:59;2.35;;;0.80;;
38972;SDS011;25333;50.762;4.470;2022-10-16T06:13:26;2.13;;;0.77;;
38972;SDS011;25333;50.762;4.470;2022-10-16T06:15:52;2.42;;;1.13;;
38972;SDS011;25333;50.762;4.470;2022-10-16T06:18:18;2.23;;;1.00;;
38972;SDS011;25333;50.762;4.470;2022-10-16T06:20:43;2.05;;;0.80;;
38972;SDS011;25333;50.762;4.470;2022-10-16T06:23:09;2.35;;;0.70;;
38972;SDS011;25333;50.762;4.470;2022-10-16T06:25:34;1.87;;;0.60;;
38972;SDS011;25333;50.762;4.470;2022-10-16T06:28:00;3.27;;;0.83;;
38972;SDS011;25333;50.762;4.470;2022-10-16T06:30:26;4.07;;;0.77;;
38972;SDS011;25333;50.762;4.470;2022-10-16T06:32:51;1.77;;;0.90;;
38972;SDS011;25333;50.762;4.470;2022-10-16T06:35:17;1.77;;;0.80;;
38972;SDS011;25333;50.762;4.470;2022-10-16T06:37:42;2.63;;;0.80;;
38972;SDS011;25333;50.762;4.470;2022-10-16T06:42:58;2.15;;;0.90;;
38972;SDS011;25333;50.762;4.470;2022-10-16T06:45:24;2.47;;;0.53;;
38972;SDS011;25333;50.762;4.470;2022-10-16T06:48:07;3.72;;;0.90;;
38972;SDS011;25333;50.762;4.470;2022-10-16T06:50:33;2.42;;;0.95;;
38972;SDS011;25333;50.762;4.470;2022-10-16T06:52:58;1.48;;;0.70;;
38972;SDS011;25333;50.762;4.470;2022-10-16T06:55:31;2.23;;;1.00;;
38972;SDS011;25333;50.762;4.470;2022-10-16T07:01:21;2.78;;;1.05;;
38972;SDS011;25333;50.762;4.470;2022-10-16T07:09:41;1.65;;;0.88;;
38972;SDS011;25333;50.762;4.470;2022-10-16T07:12:07;2.53;;;1.00;;
38972;SDS011;25333;50.762;4.470;2022-10-16T07:14:39;3.95;;;1.23;;
38972;SDS011;25333;50.762;4.470;2022-10-16T07:17:07;2.05;;;0.90;;
38972;SDS011;25333;50.762;4.470;2022-10-16T07:19:36;1.98;;;1.00;;
38972;SDS011;25333;50.762;4.470;2022-10-16T07:22:01;4.47;;;1.30;;
38972;SDS011;25333;50.762;4.470;2022-10-16T07:27:02;4.47;;;1.40;;
38972;SDS011;25333;50.762;4.470;2022-10-16T07:32:12;3.17;;;1.20;;
38972;SDS011;25333;50.762;4.470;2022-10-16T08:01:14;2.80;;;0.98;;
38972;SDS011;25333;50.762;4.470;2022-10-16T08:04:15;2.13;;;0.68;;
38972;SDS011;25333;50.762;4.470;2022-10-16T08:06:45;2.53;;;0.88;;
38972;SDS011;25333;50.762;4.470;2022-10-16T08:09:23;2.15;;;0.70;;
38972;SDS011;25333;50.762;4.470;2022-10-16T08:11:49;2.22;;;0.70;;
38972;SDS011;25333;50.762;4.470;2022-10-16T08:14:17;2.57;;;0.93;;
38972;SDS011;25333;50.762;4.470;2022-10-16T08:20:03;2.10;;;0.70;;
38972;SDS011;25333;50.762;4.470;2022-10-16T08:22:35;4.13;;;1.02;;
38972;SDS011;25333;50.762;4.470;2022-10-16T08:25:01;3.03;;;0.77;;
38972;SDS011;25333;50.762;4.470;2022-10-16T08:30:34;3.08;;;1.02;;
38972;SDS011;25333;50.762;4.470;2022-10-16T09:26:16;1.27;;;0.30;;
38972;SDS011;25333;50.762;4.470;2022-10-16T09:37:03;2.00;;;0.50;;
38972;SDS011;25333;50.762;4.470;2022-10-16T10:02:19;1.23;;;0.40;;
38972;SDS011;25333;50.762;4.470;2022-10-16T10:05:27;2.50;;;0.50;;
38972;SDS011;25333;50.762;4.470;2022-10-16T10:07:54;5.75;;;0.60;;
38972;SDS011;25333;50.762;4.470;2022-10-16T10:10:26;3.00;;;0.50;;
38972;SDS011;25333;50.762;4.470;2022-10-16T10:12:54;1.73;;;0.28;;
38972;SDS011;25333;50.762;4.470;2022-10-16T10:15:20;2.22;;;0.68;;
38972;SDS011;25333;50.762;4.470;2022-10-16T10:18:15;3.57;;;0.40;;
38972;SDS011;25333;50.762;4.470;2022-10-16T10:21:00;2.47;;;0.40;;
38972;SDS011;25333;50.762;4.470;2022-10-16T10:23:33;3.42;;;0.50;;
38972;SDS011;25333;50.762;4.470;2022-10-16T10:26:13;1.42;;;0.43;;
38972;SDS011;25333;50.762;4.470;2022-10-16T10:31:53;2.03;;;0.22;;
38972;SDS011;25333;50.762;4.470;2022-10-16T10:43:49;3.05;;;0.52;;
38972;SDS011;25333;50.762;4.470;2022-10-16T10:46:23;0.63;;;0.20;;
38972;SDS011;25333;50.762;4.470;2022-10-16T10:52:07;2.10;;;0.22;;
38972;SDS011;25333;50.762;4.470;2022-10-16T11:06:33;2.15;;;0.35;;
38972;SDS011;25333;50.762;4.470;2022-10-16T11:09:51;1.00;;;0.30;;
38972;SDS011;25333;50.762;4.470;2022-10-16T11:12:47;2.80;;;0.50;;
38972;SDS011;25333;50.762;4.470;2022-10-16T11:15:48;5.43;;;0.43;;
38972;SDS011;25333;50.762;4.470;2022-10-16T11:18:19;1.88;;;0.40;;
38972;SDS011;25333;50.762;4.470;2022-10-16T11:24:02;1.05;;;0.20;;
38972;SDS011;25333;50.762;4.470;2022-10-16T11:27:14;1.58;;;0.30;;
38972;SDS011;25333;50.762;4.470;2022-10-16T11:29:53;3.70;;;0.40;;
38972;SDS011;25333;50.762;4.470;2022-10-16T11:32:28;2.53;;;0.30;;
38972;SDS011;25333;50.762;4.470;2022-10-16T11:35:19;1.30;;;0.30;;
38972;SDS011;25333;50.762;4.470;2022-10-16T11:38:14;0.70;;;0.38;;
38972;SDS011;25333;50.762;4.470;2022-10-16T11:40:50;2.58;;;0.30;;
38972;SDS011;25333;50.762;4.470;2022-10-16T11:43:26;1.33;;;0.28;;
38972;SDS011;25333;50.762;4.470;2022-10-16T11:46:02;1.67;;;0.40;;
38972;SDS011;25333;50.762;4.470;2022-10-16T11:51:43;1.77;;;0.25;;
38972;SDS011;25333;50.762;4.470;2022-10-16T11:57:17;0.90;;;0.28;;
38972;SDS011;25333;50.762;4.470;2022-10-16T11:59:51;1.85;;;0.30;;
38972;SDS011;25333;50.762;4.470;2022-10-16T12:05:52;0.77;;;0.20;;
38972;SDS011;25333;50.762;4.470;2022-10-16T12:08:30;1.83;;;0.50;;
38972;SDS011;25333;50.762;4.470;2022-10-16T12:13:51;1.38;;;0.40;;
38972;SDS011;25333;50.762;4.470;2022-10-16T12:16:28;1.85;;;0.40;;
38972;SDS011;25333;50.762;4.470;2022-10-16T12:19:10;1.60;;;0.40;;
38972;SDS011;25333;50.762;4.470;2022-10-16T12:21:38;0.85;;;0.28;;
38972;SDS011;25333;50.762;4.470;2022-10-16T12:24:03;3.40;;;0.30;;
38972;SDS011;25333;50.762;4.470;2022-10-16T12:26:39;1.35;;;0.47;;
38972;SDS011;25333;50.762;4.470;2022-10-16T12:29:13;3.53;;;0.43;;
38972;SDS011;25333;50.762;4.470;2022-10-16T12:31:45;1.48;;;0.40;;
38972;SDS011;25333;50.762;4.470;2022-10-16T12:34:26;2.72;;;0.50;;
38972;SDS011;25333;50.762;4.470;2022-10-16T12:36:54;1.93;;;0.37;;
38972;SDS011;25333;50.762;4.470;2022-10-16T12:39:24;0.95;;;0.32;;
38972;SDS011;25333;50.762;4.470;2022-10-16T12:42:02;1.48;;;0.30;;
38972;SDS011;25333;50.762;4.470;2022-10-16T12:47:35;2.65;;;0.50;;
38972;SDS011;25333;50.762;4.470;2022-10-16T12:50:31;1.55;;;0.30;;
38972;SDS011;25333;50.762;4.470;2022-10-16T12:53:00;2.42;;;0.20;;
38972;SDS011;25333;50.762;4.470;2022-10-16T12:55:27;1.90;;;0.45;;
38972;SDS011;25333;50.762;4.470;2022-10-16T13:06:25;1.20;;;0.20;;
38972;SDS011;25333;50.762;4.470;2022-10-16T13:14:35;1.85;;;0.40;;
38972;SDS011;25333;50.762;4.470;2022-10-16T13:26:13;0.85;;;0.30;;
38972;SDS011;25333;50.762;4.470;2022-10-16T13:28:45;1.80;;;0.30;;
38972;SDS011;25333;50.762;4.470;2022-10-16T13:31:22;1.92;;;0.50;;
38972;SDS011;25333;50.762;4.470;2022-10-16T13:33:50;1.52;;;0.47;;
38972;SDS011;25333;50.762;4.470;2022-10-16T13:40:02;1.42;;;0.30;;
38972;SDS011;25333;50.762;4.470;2022-10-16T13:43:17;2.15;;;0.50;;
38972;SDS011;25333;50.762;4.470;2022-10-16T13:46:04;3.13;;;0.33;;
38972;SDS011;25333;50.762;4.470;2022-10-16T13:48:44;2.38;;;0.57;;
38972;SDS011;25333;50.762;4.470;2022-10-16T13:51:14;2.67;;;0.85;;
38972;SDS011;25333;50.762;4.470;2022-10-16T13:54:01;3.15;;;0.43;;
38972;SDS011;25333;50.762;4.470;2022-10-16T13:56:28;2.53;;;0.55;;
38972;SDS011;25333;50.762;4.470;2022-10-16T13:59:02;2.85;;;0.60;;
38972;SDS011;25333;50.762;4.470;2022-10-16T14:01:31;4.45;;;0.77;;
38972;SDS011;25333;50.762;4.470;2022-10-16T14:04:05;1.75;;;0.43;;
38972;SDS011;25333;50.762;4.470;2022-10-16T14:06:35;2.92;;;0.52;;
38972;SDS011;25333;50.762;4.470;2022-10-16T14:11:48;1.37;;;0.50;;
38972;SDS011;25333;50.762;4.470;2022-10-16T14:14:24;2.20;;;0.52;;
38972;SDS011;25333;50.762;4.470;2022-10-16T14:17:15;1.73;;;0.40;;
38972;SDS011;25333;50.762;4.470;2022-10-16T14:19:48;2.95;;;0.65;;
38972;SDS011;25333;50.762;4.470;2022-10-16T14:22:57;1.52;;;0.40;;
38972;SDS011;25333;50.762;4.470;2022-10-16T14:25:20;2.03;;;0.40;;
38972;SDS011;25333;50.762;4.470;2022-10-16T14:27:58;1.10;;;0.30;;
38972;SDS011;25333;50.762;4.470;2022-10-16T14:30:49;2.10;;;0.52;;
38972;SDS011;25333;50.762;4.470;2022-10-16T14:33:21;2.13;;;0.40;;
38972;SDS011;25333;50.762;4.470;2022-10-16T14:36:01;3.28;;;0.70;;
38972;SDS011;25333;50.762;4.470;2022-10-16T14:38:48;1.52;;;0.40;;
38972;SDS011;25333;50.762;4.470;2022-10-16T14:41:31;1.95;;;0.40;;
38972;SDS011;25333;50.762;4.470;2022-10-16T14:44:05;1.67;;;0.68;;
38972;SDS011;25333;50.762;4.470;2022-10-16T14:46:52;1.48;;;0.30;;
38972;SDS011;25333;50.762;4.470;2022-10-16T14:49:24;1.85;;;0.30;;
38972;SDS011;25333;50.762;4.470;2022-10-16T14:51:59;1.90;;;0.40;;
38972;SDS011;25333;50.762;4.470;2022-10-16T14:54:46;1.73;;;0.53;;
38972;SDS011;25333;50.762;4.470;2022-10-16T14:57:16;1.15;;;0.50;;
38972;SDS011;25333;50.762;4.470;2022-10-16T14:59:44;0.98;;;0.32;;
38972;SDS011;25333;50.762;4.470;2022-10-16T15:04:50;2.08;;;0.38;;
38972;SDS011;25333;50.762;4.470;2022-10-16T15:07:15;1.75;;;0.30;;
38972;SDS011;25333;50.762;4.470;2022-10-16T15:09:44;2.58;;;0.90;;
38972;SDS011;25333;50.762;4.470;2022-10-16T15:12:10;1.17;;;0.40;;
38972;SDS011;25333;50.762;4.470;2022-10-16T15:14:36;2.42;;;0.95;;
38972;SDS011;25333;50.762;4.470;2022-10-16T15:17:02;1.48;;;0.47;;
38972;SDS011;25333;50.762;4.470;2022-10-16T15:19:28;4.43;;;0.80;;
38972;SDS011;25333;50.762;4.470;2022-10-16T15:21:54;1.87;;;0.57;;
38972;SDS011;25333;50.762;4.470;2022-10-16T15:24:25;1.52;;;0.57;;
38972;SDS011;25333;50.762;4.470;2022-10-16T15:26:56;1.73;;;0.35;;
38972;SDS011;25333;50.762;4.470;2022-10-16T15:29:30;1.63;;;0.40;;
38972;SDS011;25333;50.762;4.470;2022-10-16T15:31:58;0.98;;;0.35;;
38972;SDS011;25333;50.762;4.470;2022-10-16T15:34:28;2.58;;;0.90;;
38972;SDS011;25333;50.762;4.470;2022-10-16T15:36:54;1.83;;;0.70;;
38972;SDS011;25333;50.762;4.470;2022-10-16T15:39:22;1.45;;;0.70;;
38972;SDS011;25333;50.762;4.470;2022-10-16T15:41:48;1.85;;;0.63;;
38972;SDS011;25333;50.762;4.470;2022-10-16T15:44:16;1.65;;;0.60;;
38972;SDS011;25333;50.762;4.470;2022-10-16T15:46:42;1.58;;;0.50;;
38972;SDS011;25333;50.762;4.470;2022-10-16T15:49:08;1.90;;;0.55;;
38972;SDS011;25333;50.762;4.470;2022-10-16T15:51:37;2.00;;;0.50;;
38972;SDS011;25333;50.762;4.470;2022-10-16T15:54:06;2.30;;;0.70;;
38972;SDS011;25333;50.762;4.470;2022-10-16T15:56:32;1.53;;;0.87;;
38972;SDS011;25333;50.762;4.470;2022-10-16T15:58:59;2.03;;;0.60;;
38972;SDS011;25333;50.762;4.470;2022-10-16T16:01:25;2.78;;;0.63;;
38972;SDS011;25333;50.762;4.470;2022-10-16T16:04:00;1.98;;;0.93;;
38972;SDS011;25333;50.762;4.470;2022-10-16T16:06:29;1.80;;;0.75;;
38972;SDS011;25333;50.762;4.470;2022-10-16T16:08:55;2.67;;;0.80;;
38972;SDS011;25333;50.762;4.470;2022-10-16T16:11:20;2.10;;;1.50;;
38972;SDS011;25333;50.762;4.470;2022-10-16T16:13:48;3.80;;;2.00;;
38972;SDS011;25333;50.762;4.470;2022-10-16T16:16:17;1.73;;;0.82;;
38972;SDS011;25333;50.762;4.470;2022-10-16T16:22:11;1.67;;;0.50;;
38972;SDS011;25333;50.762;4.470;2022-10-16T16:24:37;3.20;;;0.60;;
38972;SDS011;25333;50.762;4.470;2022-10-16T16:27:09;2.65;;;0.82;;
38972;SDS011;25333;50.762;4.470;2022-10-16T16:29:47;2.30;;;0.90;;
38972;SDS011;25333;50.762;4.470;2022-10-16T16:32:34;3.63;;;1.85;;
38972;SDS011;25333;50.762;4.470;2022-10-16T16:35:12;3.53;;;1.95;;
38972;SDS011;25333;50.762;4.470;2022-10-16T16:37:47;3.60;;;1.83;;
38972;SDS011;25333;50.762;4.470;2022-10-16T16:43:11;4.90;;;1.83;;
38972;SDS011;25333;50.762;4.470;2022-10-16T16:45:36;3.97;;;1.40;;
38972;SDS011;25333;50.762;4.470;2022-10-16T16:51:23;2.93;;;1.67;;
38972;SDS011;25333;50.762;4.470;2022-10-16T16:53:58;3.97;;;1.15;;
38972;SDS011;25333;50.762;4.470;2022-10-16T16:56:24;2.20;;;1.20;;
38972;SDS011;25333;50.762;4.470;2022-10-16T16:58:51;3.30;;;2.00;;
38972;SDS011;25333;50.762;4.470;2022-10-16T17:01:55;2.22;;;1.40;;
38972;SDS011;25333;50.762;4.470;2022-10-16T17:04:20;2.60;;;1.60;;
38972;SDS011;25333;50.762;4.470;2022-10-16T17:06:46;6.13;;;2.80;;
38972;SDS011;25333;50.762;4.470;2022-10-16T17:09:11;11.37;;;4.57;;
38972;SDS011;25333;50.762;4.470;2022-10-16T17:11:40;4.00;;;3.30;;
38972;SDS011;25333;50.762;4.470;2022-10-16T17:14:07;6.67;;;3.50;;
38972;SDS011;25333;50.762;4.470;2022-10-16T17:16:35;6.45;;;3.00;;
38972;SDS011;25333;50.762;4.470;2022-10-16T17:19:02;4.10;;;1.90;;
38972;SDS011;25333;50.762;4.470;2022-10-16T17:21:29;2.90;;;2.38;;
38972;SDS011;25333;50.762;4.470;2022-10-16T17:23:57;4.97;;;2.67;;
38972;SDS011;25333;50.762;4.470;2022-10-16T17:26:23;4.07;;;2.30;;
38972;SDS011;25333;50.762;4.470;2022-10-16T17:28:53;4.22;;;2.33;;
38972;SDS011;25333;50.762;4.470;2022-10-16T17:31:23;4.70;;;2.20;;
38972;SDS011;25333;50.762;4.470;2022-10-16T17:33:51;2.42;;;1.42;;
38972;SDS011;25333;50.762;4.470;2022-10-16T17:36:17;3.17;;;2.60;;
38972;SDS011;25333;50.762;4.470;2022-10-16T17:38:44;4.10;;;3.25;;
38972;SDS011;25333;50.762;4.470;2022-10-16T17:41:10;3.55;;;2.40;;
38972;SDS011;25333;50.762;4.470;2022-10-16T17:43:44;5.50;;;3.10;;
38972;SDS011;25333;50.762;4.470;2022-10-16T17:46:11;7.50;;;4.03;;
38972;SDS011;25333;50.762;4.470;2022-10-16T17:48:39;14.55;;;9.48;;
38972;SDS011;25333;50.762;4.470;2022-10-16T17:51:06;8.82;;;5.63;;
38972;SDS011;25333;50.762;4.470;2022-10-16T17:53:33;8.18;;;6.60;;
38972;SDS011;25333;50.762;4.470;2022-10-16T17:56:04;10.15;;;7.80;;
38972;SDS011;25333;50.762;4.470;2022-10-16T17:58:33;6.53;;;5.22;;
38972;SDS011;25333;50.762;4.470;2022-10-16T18:00:59;10.82;;;8.65;;
38972;SDS011;25333;50.762;4.470;2022-10-16T18:03:24;7.13;;;5.73;;
38972;SDS011;25333;50.762;4.470;2022-10-16T18:05:51;5.45;;;4.40;;
38972;SDS011;25333;50.762;4.470;2022-10-16T18:08:17;6.53;;;4.95;;
38972;SDS011;25333;50.762;4.470;2022-10-16T18:10:44;9.80;;;7.30;;
38972;SDS011;25333;50.762;4.470;2022-10-16T18:13:20;8.95;;;4.57;;
38972;SDS011;25333;50.762;4.470;2022-10-16T18:15:45;11.40;;;8.30;;
38972;SDS011;25333;50.762;4.470;2022-10-16T18:18:11;11.00;;;7.80;;
38972;SDS011;25333;50.762;4.470;2022-10-16T18:20:37;9.48;;;7.38;;
38972;SDS011;25333;50.762;4.470;2022-10-16T18:23:03;10.60;;;8.18;;
38972;SDS011;25333;50.762;4.470;2022-10-16T18:25:28;9.17;;;6.67;;
38972;SDS011;25333;50.762;4.470;2022-10-16T18:27:54;10.38;;;6.90;;
38972;SDS011;25333;50.762;4.470;2022-10-16T18:30:19;9.40;;;7.10;;
38972;SDS011;25333;50.762;4.470;2022-10-16T18:32:46;10.85;;;8.95;;
38972;SDS011;25333;50.762;4.470;2022-10-16T18:35:12;9.93;;;8.50;;
38972;SDS011;25333;50.762;4.470;2022-10-16T18:37:38;8.83;;;7.60;;
38972;SDS011;25333;50.762;4.470;2022-10-16T18:44:21;7.88;;;6.50;;
38972;SDS011;25333;50.762;4.470;2022-10-16T18:46:50;7.55;;;6.80;;
38972;SDS011;25333;50.762;4.470;2022-10-16T18:49:19;8.43;;;6.50;;
38972;SDS011;25333;50.762;4.470;2022-10-16T18:51:47;6.17;;;5.57;;
38972;SDS011;25333;50.762;4.470;2022-10-16T18:54:35;6.90;;;5.63;;
38972;SDS011;25333;50.762;4.470;2022-10-16T18:57:01;6.63;;;6.03;;
38972;SDS011;25333;50.762;4.470;2022-10-16T18:59:27;9.10;;;7.75;;
38972;SDS011;25333;50.762;4.470;2022-10-16T19:01:53;9.90;;;7.37;;
38972;SDS011;25333;50.762;4.470;2022-10-16T19:04:22;7.68;;;6.80;;
38972;SDS011;25333;50.762;4.470;2022-10-16T19:06:48;8.55;;;6.95;;
38972;SDS011;25333;50.762;4.470;2022-10-16T19:09:25;8.88;;;7.05;;
38972;SDS011;25333;50.762;4.470;2022-10-16T19:11:54;8.30;;;6.30;;
38972;SDS011;25333;50.762;4.470;2022-10-16T19:14:28;10.32;;;7.28;;